M I D A S
Marine Information and Data Acquisition System
Tripno 314 of the Zeeleeuw from 2002-02-28 07:05:00 to 2002-02-28 17:03:23
Back to CruiseResearch ActivitiesStationsMapUnderway DataData graphs

EquipmentUnitsComment
TimeDGPSUTC
LatitudeDGPSDM.mWGS84
LongitudeDGPSDM.mWGS84
HeadingGyrodeg 
SOGDGPSknotsSpeed over ground
COGDGPSdegCourse over ground
DepthEcho soundermeters200 kHz
Missing or incorrect values are displayed as -999
Navigation data collected by the RV Zeeleeuw from 2002-02-28 07:05:00 to 2002-02-28 17:03:23
Time Latitude Longitude Heading SOG COG Depth
2002-02-28 07:06:02 51°13.689 2°55.899 107.5 1.1 295.5 5.2
2002-02-28 07:07:03 51°13.706 2°55.807 97 3.8 285.6 -999
2002-02-28 07:08:02 51°13.715 2°55.726 75.8 2.7 276.9 9.3
2002-02-28 07:09:02 51°13.747 2°55.698 355.2 4.6 345.2 8.6
2002-02-28 07:10:02 51°13.882 2°55.594 338.3 10.6 334.7 8.5
2002-02-28 07:11:01 51°14.036 2°55.481 339.8 9.1 336.1 8.7
2002-02-28 07:12:02 51°14.158 2°55.386 335.2 8.2 331.2 8.9
2002-02-28 07:13:02 51°14.272 2°55.246 319.7 8.8 316.5 8.9
2002-02-28 07:14:02 51°14.371 2°55.065 316.2 9.2 310.8 8.7
2002-02-28 07:15:01 51°14.477 2°54.845 310.7 11.3 304.6 8.1
2002-02-28 07:16:02 51°14.583 2°54.573 305.2 12.4 299.3 8.5
2002-02-28 07:17:02 51°14.711 2°54.288 321.3 13.5 312.9 8.6
2002-02-28 07:18:02 51°14.89 2°54.08 337 13.1 329.2 7.6
2002-02-28 07:19:02 51°15.082 2°53.923 335 13 328.9 7.6
2002-02-28 07:20:02 51°15.27 2°53.743 337.2 13.3 330 8
2002-02-28 07:21:02 51°15.473 2°53.592 340 13.5 334.1 8.9
2002-02-28 07:22:02 51°15.681 2°53.444 343.5 13.7 336.7 9.7
2002-02-28 07:23:02 51°15.886 2°53.292 344.3 13.4 334.6 10.1
2002-02-28 07:24:02 51°16.088 2°53.139 344 13.5 336.1 10.7
2002-02-28 07:25:02 51°16.293 2°53.004 346.2 13.3 337.8 10.9
2002-02-28 07:26:02 51°16.498 2°52.869 345.7 13.3 337.3 10.5
2002-02-28 07:27:02 51°16.701 2°52.737 344 13.1 338 9.3
2002-02-28 07:28:02 51°16.901 2°52.616 344.7 12.7 339.6 8.2
2002-02-28 07:29:02 51°17.1 2°52.493 344.3 12.7 338.8 8.1
2002-02-28 07:30:02 51°17.301 2°52.368 345.2 13.1 338.7 8.7
2002-02-28 07:31:02 51°17.491 2°52.195 333.7 13.2 327.2 8.9
2002-02-28 07:32:02 51°17.671 2°51.996 331.5 13 325.2 8.8
2002-02-28 07:33:02 51°17.843 2°51.788 322.7 13 316.8 8.9
2002-02-28 07:34:02 51°17.946 2°51.483 295 13.3 289.2 9.3
2002-02-28 07:35:02 51°18.037 2°51.157 303.8 13.6 297.1 10.4
2002-02-28 07:36:01 51°18.116 2°50.828 293.2 13.5 287.3 11.6
2002-02-28 07:37:02 51°18.186 2°50.481 295.2 13.4 289.4 12.2
2002-02-28 07:38:02 51°18.255 2°50.168 295.5 10 289.3 12.6
2002-02-28 07:39:02 51°18.282 2°49.993 292.3 5.2 285.4 12.8
2002-02-28 07:40:02 51°18.29 2°49.892 270.2 3.2 266 12.6
2002-02-28 07:41:02 51°18.286 2°49.836 268.5 0.4 283.7 12.7
2002-02-28 07:42:02 51°18.289 2°49.836 302.2 0.3 71.3 12.4
2002-02-28 07:43:02 51°18.284 2°49.845 328.5 0.4 144.8 12.8
2002-02-28 07:44:02 51°18.281 2°49.849 334.3 0.2 136.1 12.4
2002-02-28 07:45:02 51°18.28 2°49.851 329.5 0.1 218.7 12.7
2002-02-28 07:46:02 51°18.278 2°49.853 320.8 0.4 142.6 12.7
2002-02-28 07:47:02 51°18.27 2°49.864 329.2 0.4 137.1 12.9
2002-02-28 07:48:02 51°18.271 2°49.862 324.8 0.2 327.7 12.5
2002-02-28 07:49:02 51°18.272 2°49.859 317 0.3 297.5 13
2002-02-28 07:50:02 51°18.274 2°49.856 312.8 0.1 328.8 13
2002-02-28 07:51:02 51°18.276 2°49.854 311.3   318.2 12.7
2002-02-28 07:52:02 51°18.276 2°49.853 312.7   351.4 12.7
2002-02-28 07:53:02 51°18.276 2°49.851 315 0.1 313.8 12.7
2002-02-28 07:54:02 51°18.277 2°49.85 316.2 0.1 281.3 12.6
2002-02-28 07:55:02 51°18.277 2°49.848 314.2 0.1 287.4 12.8
2002-02-28 07:56:02 51°18.276 2°49.847 317.5 0.1 228.4 12.8
2002-02-28 07:57:02 51°18.276 2°49.843 313.3 0.1 278 12.8
2002-02-28 07:58:01 51°18.277 2°49.841 312.8 0.1 347.6 12.7
2002-02-28 07:59:02 51°18.278 2°49.839 315.2 0.2 253.2 12.9
2002-02-28 08:00:02 51°18.278 2°49.836 314 0.1 278.9 12.6
2002-02-28 08:01:02 51°18.276 2°49.836 320.2 0.2 147.7 12.8
2002-02-28 08:02:02 51°18.273 2°49.838 325.2 0.1 159.1 13.2
2002-02-28 08:03:02 51°18.272 2°49.838 322.5   158.8 12.9
2002-02-28 08:04:02 51°18.271 2°49.835 322.8 0.2 265.8 12.9
2002-02-28 08:05:02 51°18.27 2°49.832 321.8 0.1 322.3 12.8
2002-02-28 08:06:02 51°18.272 2°49.828 320.2 0.2 327.9 12.4
2002-02-28 08:07:02 51°18.274 2°49.823 316.5 0.2 331.3 12.8
2002-02-28 08:08:02 51°18.276 2°49.821 318.5 0.1 189.3 12.7
2002-02-28 08:09:02 51°18.275 2°49.822 318.5 0.1 133.2 12.8
2002-02-28 08:10:02 51°18.273 2°49.828 325.2 0.2 121.4 12.9
2002-02-28 08:11:02 51°18.271 2°49.83 324.2   117.5 12.4
2002-02-28 08:12:02 51°18.271 2°49.827 319.8 0.2 282.3 12.9
2002-02-28 08:13:02 51°18.272 2°49.822 312.8 0.2 312.8 13
2002-02-28 08:14:02 51°18.273 2°49.821 321 0.1 329.2 12.6
2002-02-28 08:15:02 51°18.274 2°49.82 320 0.1 211.4 12.9
2002-02-28 08:16:02 51°18.271 2°49.82 324 0.1 142.3 13
2002-02-28 08:17:02 51°18.271 2°49.823 327.5 0.1 163.5 13.5
2002-02-28 08:18:02 51°18.271 2°49.823 322.2 0.1 281 13.3
2002-02-28 08:19:02 51°18.271 2°49.818 318 0.3 318 12.9
2002-02-28 08:20:02 51°18.273 2°49.815 319.8 0.1 308.6 13.1
2002-02-28 08:21:02 51°18.274 2°49.814 319.5 0.1 41.8 12.8
2002-02-28 08:22:02 51°18.274 2°49.815 320 0.1 110.9 12.8
2002-02-28 08:23:02 51°18.271 2°49.814 320.8 0.1 202 13.2
2002-02-28 08:24:02 51°18.271 2°49.814 323.5   21.6 13.1
2002-02-28 08:25:02 51°18.271 2°49.812 325 0.1 275.2 13.2
2002-02-28 08:26:02 51°18.272 2°49.809 320.3 0.2 324.6 12.8
2002-02-28 08:27:02 51°18.272 2°49.807 321.8 0.1 230.6 13.2
2002-02-28 08:28:02 51°18.272 2°49.806 324   332 13.1
2002-02-28 08:29:02 51°18.271 2°49.804 323.5   352.2 13.3
2002-02-28 08:30:02 51°18.27 2°49.804 324.5 0.1 202.7 13.1
2002-02-28 08:31:02 51°18.269 2°49.807 327.3 0.1 167.3 13.2
2002-02-28 08:32:02 51°18.268 2°49.807 324.2 0.2 255.1 13.5
2002-02-28 08:33:02 51°18.268 2°49.805 321.2 0.1 8.2 13.3
2002-02-28 08:34:02 51°18.267 2°49.802 323.7 0.1 279.3 13.4
2002-02-28 08:35:02 51°18.267 2°49.802 326.8 0.1 305.4 13.2
2002-02-28 08:36:02 51°18.266 2°49.802 327.8 0.1 212.7 13.5
2002-02-28 08:37:02 51°18.266 2°49.8 326.2 0.1 289.4 13.4
2002-02-28 08:38:02 51°18.266 2°49.797 324.5   249.1 12.9
2002-02-28 08:39:02 51°18.265 2°49.797 327 0.1 200.3 13.3
2002-02-28 08:40:02 51°18.264 2°49.795 326.2 0.1 243.2 13.3
2002-02-28 08:41:02 51°18.264 2°49.796 329.2 0.1 170.2 13.3
2002-02-28 08:42:02 51°18.263 2°49.797 330.7 0.1 78.6 13.2
2002-02-28 08:43:02 51°18.263 2°49.795 327.7 0.2 6.7 13.4
2002-02-28 08:44:02 51°18.265 2°49.796 324.7 0.1 29.3 13.4
2002-02-28 08:45:02 51°18.265 2°49.795 327.3 0.1 262.7 13.5
2002-02-28 08:46:02 51°18.266 2°49.793 325.5 0.1 311.1 12.8
2002-02-28 08:47:02 51°18.266 2°49.796 326 0.1 99 13.4
2002-02-28 08:48:02 51°18.265 2°49.799 325.8 0.1 124.4 13.4
2002-02-28 08:49:02 51°18.264 2°49.801 323 0.2 98.5 12.9
2002-02-28 08:50:02 51°18.261 2°49.805 322.7 0.1 114.7 13.7
2002-02-28 08:51:02 51°18.261 2°49.805 322.7 0.1 161.1 13.2
2002-02-28 08:52:02 51°18.26 2°49.805 326.8 0.1 156.6 13.3
2002-02-28 08:53:02 51°18.261 2°49.804 325.8 0.2 17.8 12.7
2002-02-28 08:54:02 51°18.261 2°49.803 325.5 0.1 268.4 13.6
2002-02-28 08:55:02 51°18.262 2°49.802 322.8 0.1 312.9 13
2002-02-28 08:56:02 51°18.263 2°49.802 319.7 0.1 337 13.5
2002-02-28 08:57:02 51°18.262 2°49.804 321.8   86.1 13.5
2002-02-28 08:58:02 51°18.263 2°49.805 323.5 0.1 187.7 13.6
2002-02-28 08:59:02 51°18.26 2°49.809 328.7 0.2 177.5 13.8
2002-02-28 09:00:02 51°18.257 2°49.81 326.8 0.1 246.4 14
2002-02-28 09:01:02 51°18.26 2°49.806 320.2 0.3 297 13.4
2002-02-28 09:02:02 51°18.263 2°49.8 320.7 0.3 305.4 13.7
2002-02-28 09:03:02 51°18.265 2°49.797 324.5 0.1 282.5 13.3
2002-02-28 09:04:02 51°18.265 2°49.799 327 0.3 153.3 12
2002-02-28 09:05:02 51°18.262 2°49.803 328.2 0.3 141.3 13.8
2002-02-28 09:06:02 51°18.26 2°49.806 330.2 0.1 195.3 13.4
2002-02-28 09:07:02 51°18.261 2°49.807 324.3 0.1 65.7 13.5
2002-02-28 09:08:02 51°18.261 2°49.806 321.7 0.1 310.7 13.5
2002-02-28 09:09:02 51°18.261 2°49.805 321   338.4 13.5
2002-02-28 09:10:02 51°18.261 2°49.804 322.5 0.1 341.4 13.5
2002-02-28 09:11:02 51°18.261 2°49.803 323 0.2 232.5 13.9
2002-02-28 09:12:02 51°18.26 2°49.804 328.2 0.2 97.4 13.4
2002-02-28 09:13:02 51°18.26 2°49.805 326.3 0.1 301 13.9
2002-02-28 09:14:02 51°18.261 2°49.804 325.2 0.1 307.5 13.1
2002-02-28 09:15:02 51°18.263 2°49.799 320.3 0.2 311.8 13.9
2002-02-28 09:16:02 51°18.265 2°49.797 320.2 0.2 293 13.5
2002-02-28 09:17:02 51°18.267 2°49.796 321 0.1 285.4 13.9
2002-02-28 09:18:02 51°18.268 2°49.794 322 0.1 39.1 13.8
2002-02-28 09:19:02 51°18.268 2°49.798 323.2 0.2 102.3 13.6
2002-02-28 09:20:02 51°18.266 2°49.803 326.3 0.2 97.2 13.7
2002-02-28 09:21:02 51°18.263 2°49.811 327.8 0.2 138.2 13.8
2002-02-28 09:22:02 51°18.261 2°49.815 329 0.1 124.5 13.8
2002-02-28 09:23:02 51°18.26 2°49.816 323.7   0.5 13.9
2002-02-28 09:24:02 51°18.261 2°49.816 321.7   231.5 14.1
2002-02-28 09:25:02 51°18.262 2°49.817 319.7 0.1 83.9 13.5
2002-02-28 09:26:02 51°18.262 2°49.818 318 0.1 108.7 13.3
2002-02-28 09:27:02 51°18.262 2°49.818 317.7 0.1 338.4 14
2002-02-28 09:28:02 51°18.263 2°49.819 317.8 0.1 136.5 14
2002-02-28 09:29:02 51°18.263 2°49.823 324.2 0.3 133.5 13.6
2002-02-28 09:30:02 51°18.261 2°49.829 326.5 0.1 100 14.1
2002-02-28 09:31:02 51°18.261 2°49.827 320.2 0.1 290.6 14.1
2002-02-28 09:32:02 51°18.262 2°49.828 316.3   47.5 13.9
2002-02-28 09:33:02 51°18.262 2°49.83 317.5 0.3 66.2 13.7
2002-02-28 09:34:02 51°18.261 2°49.833 320.8 0.1 107.9 13.7
2002-02-28 09:35:02 51°18.261 2°49.832 317.7 0.1 241.3 14.1
2002-02-28 09:36:02 51°18.261 2°49.835 320.3 0.2 104.5 13.8
2002-02-28 09:37:02 51°18.26 2°49.837 325 0.1 35.5 14.2
2002-02-28 09:38:02 51°18.262 2°49.836 320.7 0.1 342.3 14.2
2002-02-28 09:39:02 51°18.264 2°49.837 319.7 0.1 133.6 14.4
2002-02-28 09:40:02 51°18.263 2°49.839 321.8 0.1 108 14.2
2002-02-28 09:41:02 51°18.262 2°49.839 317.5 0.1 294.7 14.1
2002-02-28 09:42:02 51°18.263 2°49.839 316.5 0.1 345.8 14.3
2002-02-28 09:43:02 51°18.263 2°49.84 324 0.1 160 13.3
2002-02-28 09:44:02 51°18.264 2°49.841 321.2   356.9 14.1
2002-02-28 09:45:02 51°18.264 2°49.841 319.7 0.2 29.5 14.1
2002-02-28 09:46:02 51°18.266 2°49.842 317.2 0.1 41.5 14.3
2002-02-28 09:47:02 51°18.268 2°49.843 317.3 0.1 269.4 14.8
2002-02-28 09:48:02 51°18.27 2°49.845 313.5 0.2 28.7 14.6
2002-02-28 09:49:02 51°18.271 2°49.849 317 0.2 61.2 14.2
2002-02-28 09:50:02 51°18.272 2°49.855 318.3 0.2 64 14.2
2002-02-28 09:51:02 51°18.274 2°49.86 315 0.4 50 14.2
2002-02-28 09:52:02 51°18.276 2°49.862 313.2 0.1 53.3 14.3
2002-02-28 09:53:02 51°18.277 2°49.866 317 0.1 67.5 14.1
2002-02-28 09:54:02 51°18.278 2°49.869 314.3 0.1 97.4 14.4
2002-02-28 09:55:02 51°18.278 2°49.871 314.2 0.2 25.4 14.5
2002-02-28 09:56:02 51°18.282 2°49.873 312.5 0.2 0.4 14.5
2002-02-28 09:57:02 51°18.284 2°49.874 308.3 0.1 207.2 14.4
2002-02-28 09:58:02 51°18.285 2°49.876 305.2 0.1 21.5 14.6
2002-02-28 09:59:02 51°18.287 2°49.878 304.5 0.1 59.7 14.4
2002-02-28 10:00:02 51°18.29 2°49.881 305.5 0.3 40.9 14.4
2002-02-28 10:01:02 51°18.291 2°49.88 302.5 0.1 320.1 14.7
2002-02-28 10:02:02 51°18.294 2°49.88 300.7 0.2 4.5 14.8
2002-02-28 10:03:02 51°18.297 2°49.88 298.7 0.1 23.1 14
2002-02-28 10:04:02 51°18.299 2°49.881 293.7 0.1 335.6 14.7
2002-02-28 10:05:02 51°18.301 2°49.878 293 0.1 344 14.6
2002-02-28 10:06:02 51°18.304 2°49.876 292.5   341.2 14.2
2002-02-28 10:07:02 51°18.305 2°49.876 290 0.1 123.1 14.5
2002-02-28 10:08:02 51°18.305 2°49.876 285.8 0.1 311.4 14.5
2002-02-28 10:09:02 51°18.307 2°49.873 284.3 0.2 289.4 14.8
2002-02-28 10:10:02 51°18.31 2°49.871 283.2   3.5 14.7
2002-02-28 10:11:02 51°18.31 2°49.874 275.5 0.2 29.9 14.5
2002-02-28 10:12:02 51°18.31 2°49.874 276.2 0.1 272.7 14.6
2002-02-28 10:13:02 51°18.312 2°49.872 275.5 0.1 299.9 14.5
2002-02-28 10:14:02 51°18.313 2°49.873 274 0.2 107.3 14.4
2002-02-28 10:15:02 51°18.312 2°49.872 269.7 0.2 301.1 14.9
2002-02-28 10:16:02 51°18.314 2°49.87 274.8   214.3 14.1
2002-02-28 10:17:02 51°18.315 2°49.869 272.8 0.1 199.7 14.5
2002-02-28 10:18:02 51°18.315 2°49.868 269.5 0.1 14.8 14.7
2002-02-28 10:19:02 51°18.316 2°49.869 263.8 0.1 331.9 14.6
2002-02-28 10:20:02 51°18.316 2°49.868 263.7 0.1 347.8 14.8
2002-02-28 10:21:02 51°18.317 2°49.867 263 0.1 343.8 14.7
2002-02-28 10:22:02 51°18.318 2°49.866 259.2 0.1 350 14.7
2002-02-28 10:23:02 51°18.319 2°49.865 258.3   207.1 14.9
2002-02-28 10:24:02 51°18.318 2°49.866 258.8   105.1 14.8
2002-02-28 10:25:02 51°18.318 2°49.866 258 0.1 106 14.9
2002-02-28 10:26:02 51°18.319 2°49.866 256.2 0.1 254.5 14.9
2002-02-28 10:27:02 51°18.32 2°49.863 257 0.2 286.7 14.9
2002-02-28 10:28:02 51°18.321 2°49.861 257 0.1 66.4 14.8
2002-02-28 10:29:02 51°18.321 2°49.858 255.8 0.1 279.8 14.9
2002-02-28 10:30:02 51°18.322 2°49.857 255   185.1 14.8
2002-02-28 10:31:02 51°18.322 2°49.858 250 0.1 58.6 14.9
2002-02-28 10:32:02 51°18.323 2°49.858 249.7 0.1 34.7 14.8
2002-02-28 10:33:02 51°18.322 2°49.863 241.7 0.1 106.6 15.3
2002-02-28 10:34:02 51°18.321 2°49.866 242.7 0.2 156.3 14.9
2002-02-28 10:35:02 51°18.319 2°49.866 240.3 0.1 108.7 15.1
2002-02-28 10:36:02 51°18.317 2°49.874 241.3 0.4 157.5 15.1
2002-02-28 10:37:02 51°18.313 2°49.878 248.3 0.4 121.2 15.1
2002-02-28 10:38:02 51°18.312 2°49.878 253 0.2 277.1 15.3
2002-02-28 10:39:02 51°18.314 2°49.873 258.3 0.3 284.5 15.2
2002-02-28 10:40:02 51°18.314 2°49.872 258.5 0.1 136.1 15.3
2002-02-28 10:41:02 51°18.313 2°49.877 248.8 0.4 118.4 15.1
2002-02-28 10:42:02 51°18.309 2°49.881 237.3 0.3 157.2 15.3
2002-02-28 10:43:02 51°18.305 2°49.884 244 0.2 150 15.2
2002-02-28 10:44:02 51°18.305 2°49.884 258.5 0.2 267.8 15.4
2002-02-28 10:45:02 51°18.306 2°49.882 267.5 0.1 6 15.5
2002-02-28 10:46:02 51°18.309 2°49.881 261.5 0.2 57.1 15.3
2002-02-28 10:47:02 51°18.307 2°49.883 252.8 0.2 155.7 15.6
2002-02-28 10:48:02 51°18.303 2°49.886 243.3 0.3 160.6 15.2
2002-02-28 10:49:02 51°18.3 2°49.887 251.3   127.2 15.6
2002-02-28 10:50:02 51°18.302 2°49.886 260.7 0.2 311.1 15.5
2002-02-28 10:51:02 51°18.303 2°49.884 259 0.1 311.4 15.6
2002-02-28 10:52:02 51°18.304 2°49.884 254.3 0.3 220.7 15.6
2002-02-28 10:53:02 51°18.305 2°49.884 255.2 0.3 238.7 15.8
2002-02-28 10:54:02 51°18.305 2°49.886 257.7 0.2 61.7 15.8
2002-02-28 10:55:02 51°18.306 2°49.883 257.5 0.3 1.8 15.7
2002-02-28 10:56:02 51°18.307 2°49.883 251.8 0.2 104.6 15.9
2002-02-28 10:57:02 51°18.306 2°49.885 249 0.1 225.3 15.9
2002-02-28 10:58:02 51°18.308 2°49.883 254.8 0.1 307.3 15.8
2002-02-28 10:59:02 51°18.307 2°49.884 250.5 0.1 108.3 15.8
2002-02-28 11:00:02 51°18.305 2°49.885 244.8 0.2 191.3 16
2002-02-28 11:01:02 51°18.304 2°49.887 255.2 0.1 245.9 16
2002-02-28 11:02:02 51°18.306 2°49.885 258.2 0.2 355.1 15.9
2002-02-28 11:03:02 51°18.309 2°49.882 257 0.2 29 15.9
2002-02-28 11:04:02 51°18.309 2°49.882 250 0.2 49.7 16
2002-02-28 11:05:02 51°18.307 2°49.884 243 0.2 147 16
2002-02-28 11:06:02 51°18.306 2°49.884 247.2 0.2 209.2 16.2
2002-02-28 11:07:02 51°18.305 2°49.886 251.2 0.2 267.5 15.7
2002-02-28 11:08:02 51°18.307 2°49.884 250.5   119.8 16.2
2002-02-28 11:09:02 51°18.306 2°49.885 247.3 0.2 220.8 16.3
2002-02-28 11:10:02 51°18.306 2°49.886 249.7 0.2 245.9 16.3
2002-02-28 11:11:02 51°18.307 2°49.885 250.8 0.2 244.8 16
2002-02-28 11:12:02 51°18.308 2°49.883 252.8 0.1 295.2 16.2
2002-02-28 11:13:02 51°18.31 2°49.882 247.8 0.2 220.6 16.2
2002-02-28 11:14:02 51°18.31 2°49.882 247   174.4 16.3
2002-02-28 11:15:02 51°18.311 2°49.881 246.5 0.1 69.2 16.4
2002-02-28 11:16:02 51°18.31 2°49.882 244 0.1 170.9 16.2
2002-02-28 11:17:02 51°18.308 2°49.884 244.5 0.2 193.7 16.3
2002-02-28 11:18:02 51°18.306 2°49.884 245.3 0.3 205.4 16.5
2002-02-28 11:19:02 51°18.305 2°49.887 245.5 0.1 187.1 16.4
2002-02-28 11:20:02 51°18.306 2°49.887 253.3 0.1 32 16.4
2002-02-28 11:21:02 51°18.308 2°49.885 252.5 0.1 286.9 16.3
2002-02-28 11:22:02 51°18.309 2°49.885 246.2 0.2 172 16.5
2002-02-28 11:23:02 51°18.306 2°49.886 243 0.4 186.4 16.6
2002-02-28 11:24:02 51°18.304 2°49.888 246.3 0.1 159.9 16.7
2002-02-28 11:25:02 51°18.305 2°49.888 254.5 0.1 35.8 16.3
2002-02-28 11:26:02 51°18.307 2°49.887 252.2 0.2 302.1 16.6
2002-02-28 11:27:02 51°18.309 2°49.885 247.5 0.1 255.1 16.8
2002-02-28 11:28:02 51°18.309 2°49.885 247.2   304.4 16.7
2002-02-28 11:29:02 51°18.306 2°49.887 244.5 0.2 173.3 16.8
2002-02-28 11:30:02 51°18.306 2°49.888 248.7 0.1 54.2 17
2002-02-28 11:31:02 51°18.307 2°49.886 250.7 0.3 333.3 16.7
2002-02-28 11:32:02 51°18.308 2°49.886 253.5   145.7 16.6
2002-02-28 11:33:02 51°18.308 2°49.886 253 0.3 29.1 16.8
2002-02-28 11:34:02 51°18.308 2°49.886 245.8 0.1 225.4 16.7
2002-02-28 11:35:02 51°18.31 2°49.887 247 0.3 58.8 17
2002-02-28 11:36:02 51°18.31 2°49.888 244.7 0.1 146.7 17
2002-02-28 11:37:02 51°18.309 2°49.901 237.3 0.5 97.1 17.2
2002-02-28 11:38:02 51°18.311 2°49.901 253.7 0.2 354 16.8
2002-02-28 11:39:02 51°18.312 2°49.899 246.7 0.1 306.6 17.3
2002-02-28 11:40:02 51°18.314 2°49.899 247.3 0.2 244.1 17
2002-02-28 11:41:02 51°18.313 2°49.901 243.8 0.2 182.6 16.9
2002-02-28 11:42:02 51°18.312 2°49.902 244.8 0.1   17.1
2002-02-28 11:43:02 51°18.314 2°49.9 250.2 0.1 68.2 16.8
2002-02-28 11:44:02 51°18.313 2°49.902 241.7 0.1 144.2 17.3
2002-02-28 11:45:02 51°18.311 2°49.905 240.8 0.1 96.6 17.1
2002-02-28 11:46:02 51°18.313 2°49.903 250.5 0.2 8.2 17.2
2002-02-28 11:47:02 51°18.316 2°49.902 246.2   341.5 17.1
2002-02-28 11:48:02 51°18.316 2°49.902 246.8 0.2 51.8 17
2002-02-28 11:49:03 51°18.316 2°49.901 248.7 0.1 45.3 17.2
2002-02-28 11:50:02 51°18.316 2°49.902 240.3 0.2 175.9 17.3
2002-02-28 11:51:02 51°18.312 2°49.906 242.2 0.2 134.6 17.2
2002-02-28 11:52:02 51°18.313 2°49.903 249.5 0.2 309.6 17.3
2002-02-28 11:53:03 51°18.313 2°49.904 242 0.2 204.2 17.2
2002-02-28 11:54:02 51°18.31 2°49.905 243.2 0.1 237.1 17.4
2002-02-28 11:55:02 51°18.312 2°49.905 246.7 0.2 352.4 17.3
2002-02-28 11:56:02 51°18.314 2°49.903 244.2 0.2 44 17.4
2002-02-28 11:57:02 51°18.313 2°49.904 241.8   38.8 17.5
2002-02-28 11:58:02 51°18.313 2°49.904 247 0.2 359.7 17.5
2002-02-28 11:59:02 51°18.315 2°49.902 245.3 0.2 243.7 17.4
2002-02-28 12:00:02 51°18.315 2°49.903 241.3 0.2 228.8 17.2
2002-02-28 12:01:03 51°18.316 2°49.903 242.2 0.1 193.8 17.1
2002-02-28 12:02:02 51°18.314 2°49.907 236.7 0.2 119.2 17.4
2002-02-28 12:03:03 51°18.312 2°49.906 246 0.2 68.7 17.4
2002-02-28 12:04:02 51°18.315 2°49.903 251 0.3 337.6 17.3
2002-02-28 12:05:02 51°18.317 2°49.905 239 0.2 126.1 17.4
2002-02-28 12:06:02 51°18.315 2°49.907 241.3 0.2 86.8 17.4
2002-02-28 12:07:02 51°18.316 2°49.906 248.7 0.3 6.3 17.3
2002-02-28 12:08:03 51°18.318 2°49.905 243.5 0.2 68.1 17.5
2002-02-28 12:09:02 51°18.315 2°49.908 239.2 0.2 129.6 17.5
2002-02-28 12:10:02 51°18.315 2°49.913 245.3 0.2 258.8 17.5
2002-02-28 12:11:03 51°18.318 2°49.911 248.7 0.1 348.8 17.4
2002-02-28 12:12:02 51°18.318 2°49.913 240.2 0.2 129.1 17.7
2002-02-28 12:13:02 51°18.315 2°49.916 241 0.1 147.6 17.7
2002-02-28 12:14:02 51°18.315 2°49.915 243.3 0.1 16.5 17.7
2002-02-28 12:15:03 51°18.316 2°49.914 248.2 0.3 10.5 17.5
2002-02-28 12:16:02 51°18.315 2°49.914 240.7 0.3 120.9 17.6
2002-02-28 12:17:02 51°18.312 2°49.916 243.7   165.5 17.6
2002-02-28 12:18:03 51°18.316 2°49.913 252.2 0.5 307.2 17.6
2002-02-28 12:19:03 51°18.317 2°49.913 240.5 0.1 184.6 17.6
2002-02-28 12:20:02 51°18.317 2°49.915 243 0.4 54.9 17.6
2002-02-28 12:21:02 51°18.317 2°49.914 245.5 0.1 83.2 17.7
2002-02-28 12:22:03 51°18.316 2°49.913 244.2   311.9 17.7
2002-02-28 12:23:03 51°18.317 2°49.915 244 0.1 278.8 17.8
2002-02-28 12:24:02 51°18.318 2°49.914 247.8 0.1 317.3 17.6
2002-02-28 12:25:02 51°18.317 2°49.915 241.5 0.2 162 17.7
2002-02-28 12:26:02 51°18.314 2°49.917 239.3 0.3 189.7 17.6
2002-02-28 12:27:02 51°18.314 2°49.918 246.5 0.2 263.6 17.8
2002-02-28 12:28:03 51°18.317 2°49.918 250.2 0.1 30.8 17.6
2002-02-28 12:29:02 51°18.318 2°49.918 248 0.2 9.9 17.6
2002-02-28 12:30:03 51°18.318 2°49.917 244.7 0.1 86.6 17.6
2002-02-28 12:31:02 51°18.315 2°49.917 238.8 0.2 178.4 17.7
2002-02-28 12:32:02 51°18.314 2°49.921 242.5 0.2 153.2 17.6
2002-02-28 12:33:03 51°18.311 2°49.923 246.7 0.2 118.5 17.8
2002-02-28 12:34:03 51°18.313 2°49.919 254.5 0.3 307.1 17.8
2002-02-28 12:35:02 51°18.317 2°49.918 250.8 0.1 250.3 17.6
2002-02-28 12:36:03 51°18.317 2°49.919 245.2 0.1 139.7 17.5
2002-02-28 12:37:03 51°18.318 2°49.918 250.5 0.1 15.9 17.7
2002-02-28 12:38:02 51°18.318 2°49.919 246.7 0.2 79.6 17.3
2002-02-28 12:39:02 51°18.319 2°49.916 251.8 0.3 320 17.7
2002-02-28 12:40:03 51°18.32 2°49.919 240.3 0.2 160.3 17.7
2002-02-28 12:41:02 51°18.316 2°49.921 236.5 0.3 132.3 17.5
2002-02-28 12:42:02 51°18.315 2°49.92 248.7 0.1 335.6 17.8
2002-02-28 12:43:02 51°18.319 2°49.919 252.5 0.3 312.5 17.6
2002-02-28 12:44:02 51°18.321 2°49.92 246.2 0.1 43.4 17.7
2002-02-28 12:45:03 51°18.319 2°49.924 241 0.3 126.6 17.8
2002-02-28 12:46:02 51°18.319 2°49.93 243.7 0.2 115.5 17.8
2002-02-28 12:47:02 51°18.318 2°49.931 244.5 0.1 297 17.7
2002-02-28 12:48:03 51°18.322 2°49.927 250.8 0.3 299.9 17.7
2002-02-28 12:49:02 51°18.322 2°49.928 239.7 0.1 130.9 17.8
2002-02-28 12:50:02 51°18.315 2°49.923 237.7 0.3 181.9 17.5
2002-02-28 12:51:02 51°18.312 2°49.913 249.2 0.6 274.8 17.8
2002-02-28 12:52:02 51°18.309 2°49.897 241.7 0.4 241.9 17.6
2002-02-28 12:53:02 51°18.304 2°49.89 245.3 0.6 253.1 17.5
2002-02-28 12:54:02 51°18.305 2°49.887 241.5 0.2 105.7 17.5
2002-02-28 12:55:02 51°18.309 2°49.908 238 1 72.4 17.9
2002-02-28 12:56:03 51°18.318 2°49.952 229.8 2.2 67.3 17.8
2002-02-28 12:57:02 51°18.326 2°50.007 183.2 2.1 107.4 17.7
2002-02-28 12:58:03 51°18.275 2°50.178 130 11.6 117.2 18
2002-02-28 12:59:02 51°18.168 2°50.492 132 14.3 120.8 17
2002-02-28 13:00:02 51°18.057 2°50.826 129.2 14.3 118.3 16.3
2002-02-28 13:01:02 51°17.933 2°51.15 135.7 14.3 122.6 15
2002-02-28 13:02:02 51°17.808 2°51.465 133.5 14 124.4 13.7
2002-02-28 13:03:02 51°17.672 2°51.767 137.3 13.5 125.8 13.9
2002-02-28 13:04:02 51°17.532 2°52.059 141.7 13.7 130.3 14.1
2002-02-28 13:05:03 51°17.377 2°52.328 145.5 13.8 131.7 14
2002-02-28 13:06:02 51°17.223 2°52.582 149 13.8 137.8 13.6
2002-02-28 13:07:02 51°17.063 2°52.836 145.8 13.6 131.8 13.5
2002-02-28 13:08:02 51°16.909 2°53.107 144.7 13.8 131 12.1
2002-02-28 13:09:02 51°16.753 2°53.382 144.8 14 132.9 15
2002-02-28 13:10:02 51°16.602 2°53.669 142.3 14.1 129.5 15.7
2002-02-28 13:11:02 51°16.456 2°53.968 141 14.3 128.5 15.6
2002-02-28 13:12:03 51°16.306 2°54.269 140.8 14.1 128.6 15.2
2002-02-28 13:13:03 51°16.162 2°54.566 138.2 14.3 125.6 14.7
2002-02-28 13:14:03 51°16.011 2°54.845 143.3 13.7 131.3 14.1
2002-02-28 13:15:02 51°15.879 2°55.145 127.7 14.2 117.5 13.3
2002-02-28 13:16:02 51°15.832 2°55.5 107.8 11.1 95.5 12.9
2002-02-28 13:17:03 51°15.776 2°55.635 182.5 4.6 157.5 12.6
2002-02-28 13:18:02 51°15.748 2°55.614 245.2 0.7 60.7 13
2002-02-28 13:19:03 51°15.758 2°55.641 248 1.5 58.8 -999
2002-02-28 13:20:02 51°15.77 2°55.678 244.7 1.4 63.6 12.8
2002-02-28 13:21:02 51°15.77 2°55.683 242 0.3 182.5 12.8
2002-02-28 13:22:03 51°15.769 2°55.685 248.2 0.1 69.2 12.8
2002-02-28 13:23:03 51°15.771 2°55.682 254.8 0.2 329.6 12.9
2002-02-28 13:24:03 51°15.774 2°55.679 253.2 0.2 334.5 12.8
2002-02-28 13:25:02 51°15.775 2°55.68 241.2 0.2 129.2 12.9
2002-02-28 13:26:02 51°15.771 2°55.684 237.3 0.1 164 12.8
2002-02-28 13:27:03 51°15.769 2°55.685 241 0.1 137.4 12.8
2002-02-28 13:28:03 51°15.77 2°55.684 245.7 0.1 314.1 12.9
2002-02-28 13:29:03 51°15.77 2°55.684 244 0.2 311.9 12.8
2002-02-28 13:30:03 51°15.771 2°55.682 248.7 0.2 322.6 12.8
2002-02-28 13:31:02 51°15.773 2°55.681 246.5 0.1 317.9 12.8
2002-02-28 13:32:03 51°15.774 2°55.681 243.5 0.1 66 12.8
2002-02-28 13:33:03 51°15.773 2°55.682 240.7 0.1 189.2 12.8
2002-02-28 13:34:03 51°15.772 2°55.684 238.3 0.2 137.8 12.7
2002-02-28 13:35:02 51°15.772 2°55.683 244.2 0.2 9.3 12.8
2002-02-28 13:36:03 51°15.771 2°55.683 241.3 0.1 149.4 12.9
2002-02-28 13:37:02 51°15.771 2°55.683 244.3   307.7 12.8
2002-02-28 13:38:03 51°15.77 2°55.684 240 0.1 126.7 12.8
2002-02-28 13:39:02 51°15.768 2°55.685 242.5   292.9 12.8
2002-02-28 13:40:03 51°15.77 2°55.684 247.2 0.1 349.3 12.8
2002-02-28 13:41:02 51°15.772 2°55.681 248.3 0.2 328.2 12.8
2002-02-28 13:42:03 51°15.773 2°55.682 243 0.1 23 12.7
2002-02-28 13:43:03 51°15.772 2°55.681 244.3   337 12.8
2002-02-28 13:44:03 51°15.773 2°55.681 246.7 0.1 282.8 12.7
2002-02-28 13:45:03 51°15.776 2°55.678 248.5 0.3 327 12.7
2002-02-28 13:46:03 51°15.778 2°55.675 244.7 0.1 315.7 12.7
2002-02-28 13:47:03 51°15.78 2°55.673 238.5 0.1 358 12.7
2002-02-28 13:48:03 51°15.778 2°55.677 230 0.2 139.1 12.6
2002-02-28 13:49:03 51°15.777 2°55.679 238.8 0.1 344.8 12.7
2002-02-28 13:50:03 51°15.78 2°55.674 242.3 0.3 335.4 12.7
2002-02-28 13:51:02 51°15.78 2°55.675 231.7 0.2 128.3 12.8
2002-02-28 13:52:03 51°15.777 2°55.677 235.3   129 12.7
2002-02-28 13:53:03 51°15.778 2°55.675 242.7 0.2 321 12.7
2002-02-28 13:54:03 51°15.782 2°55.671 242.3 0.3 317.1 12.7
2002-02-28 13:55:02 51°15.783 2°55.671 232 0.1 104.6 12.7
2002-02-28 13:56:03 51°15.781 2°55.673 232 0.1 129.4 12.7
2002-02-28 13:57:02 51°15.781 2°55.673 235.8 0.1 143 12.6
2002-02-28 13:58:03 51°15.781 2°55.672 236.2 0.1 245.5 12.6
2002-02-28 13:59:03 51°15.781 2°55.673 235.2 0.1 37.2 12.6
2002-02-28 14:00:02 51°15.782 2°55.671 236.7 0.1 304.8 12.7
2002-02-28 14:01:03 51°15.782 2°55.671 233.3 0.2 139.8 12.6
2002-02-28 14:02:02 51°15.78 2°55.674 232.3 0.2 130.5 12.6
2002-02-28 14:03:03 51°15.78 2°55.674 238.5 0.1 319.4 12.6
2002-02-28 14:04:03 51°15.782 2°55.672 236.5 0.1 7.4 12.6
2002-02-28 14:05:02 51°15.781 2°55.673 231.5 0.1 115.2 12.6
2002-02-28 14:06:02 51°15.779 2°55.676 231.2 0.1 155.1 12.6
2002-02-28 14:07:03 51°15.78 2°55.675 240.8 0.2 322.3 12.6
2002-02-28 14:08:02 51°15.782 2°55.67 240.8 0.2 320.1 12.6
2002-02-28 14:09:03 51°15.781 2°55.672 234.7 0.1 132 12.6
2002-02-28 14:10:03 51°15.782 2°55.671 239.5   276.1 12.5
2002-02-28 14:11:02 51°15.783 2°55.668 236.8 0.1 290.9 12.6
2002-02-28 14:12:03 51°15.784 2°55.668 234.3 0.1 85.6 12.4
2002-02-28 14:13:03 51°15.781 2°55.674 221.7 0.4 133.7 12.4
2002-02-28 14:14:02 51°15.777 2°55.678 225.7 0.2 126.1 12.4
2002-02-28 14:15:03 51°15.778 2°55.677 241.3 0.3 322.9 12.5
2002-02-28 14:16:03 51°15.781 2°55.672 238.2 0.2 339.5 12.5
2002-02-28 14:17:03 51°15.78 2°55.673 231.2 0.2 135 12.4
2002-02-28 14:18:02 51°15.78 2°55.674 234.5   126.6 12.4
2002-02-28 14:19:03 51°15.779 2°55.674 235.2 0.1 172.3 12.5
2002-02-28 14:20:03 51°15.779 2°55.674 237.5 0.1 253.1 12.4
2002-02-28 14:21:03 51°15.78 2°55.673 238.3 0.2 288.3 12.4
2002-02-28 14:22:02 51°15.781 2°55.672 234.5 0.1 112.2 12.4
2002-02-28 14:23:02 51°15.78 2°55.674 226.3 0.3 116.6 12.3
2002-02-28 14:24:03 51°15.776 2°55.677 230.2 0.2 114.3 12.4
2002-02-28 14:25:03 51°15.778 2°55.676 241 0.1 342.8 12.2
2002-02-28 14:26:02 51°15.78 2°55.674 236.5 0.1 33.3 12.4
2002-02-28 14:27:02 51°15.78 2°55.674 230.8 0.1 130.7 12.4
2002-02-28 14:28:03 51°15.778 2°55.674 231.7 0.1 189.6 12.3
2002-02-28 14:29:03 51°15.779 2°55.675 237.7 0.2 285 12.4
2002-02-28 14:30:02 51°15.781 2°55.673 238.7 0.2 324.4 12.4
2002-02-28 14:31:02 51°15.782 2°55.671 231 0.1 94.9 12.2
2002-02-28 14:32:03 51°15.779 2°55.674 227.2 0.3 126.7 12.4
2002-02-28 14:33:02 51°15.777 2°55.677 235.2   280.4 12.2
2002-02-28 14:34:03 51°15.78 2°55.672 245 0.3 315.5 12.2
2002-02-28 14:35:03 51°15.781 2°55.671 234.8 0.1 51 12.2
2002-02-28 14:36:03 51°15.78 2°55.673 230 0.2 143.1 12.2
2002-02-28 14:37:03 51°15.78 2°55.674 234.8   207.1 12.2
2002-02-28 14:38:03 51°15.78 2°55.673 236.5   307.5 12.3
2002-02-28 14:39:03 51°15.78 2°55.675 228 0.2 106.5 12.1
2002-02-28 14:40:02 51°15.777 2°55.677 229.5 0.1 116.1 12.1
2002-02-28 14:41:02 51°15.777 2°55.677 236.8 0.1 286.5 12.2
2002-02-28 14:42:02 51°15.778 2°55.676 237 0.1 318.2 12.2
2002-02-28 14:43:02 51°15.779 2°55.674 238 0.1 10.5 12.2
2002-02-28 14:44:03 51°15.779 2°55.674 236   175 12.1
2002-02-28 14:45:02 51°15.779 2°55.675 233.7 0.1 133.5 12
2002-02-28 14:46:03 51°15.778 2°55.675 236.5   66.6 12
2002-02-28 14:47:03 51°15.778 2°55.676 236.8 0.1 165.6 12
2002-02-28 14:48:02 51°15.777 2°55.677 236.8 0.1 148.9 12.1
2002-02-28 14:49:03 51°15.777 2°55.676 241.7 0.2 343.9 12.1
2002-02-28 14:50:03 51°15.779 2°55.674 242.3 0.2 303.8 12
2002-02-28 14:51:02 51°15.781 2°55.672 235.8 0.1 168.6 12
2002-02-28 14:52:03 51°15.778 2°55.677 226.5 0.3 143.4 12
2002-02-28 14:53:03 51°15.774 2°55.681 228.3 0.2 155.5 12.1
2002-02-28 14:54:03 51°15.774 2°55.68 239.3 0.2 353 12
2002-02-28 14:55:02 51°15.777 2°55.677 244.3 0.3 318.6 11.9
2002-02-28 14:56:02 51°15.779 2°55.675 237.7 0.1 350.9 11.9
2002-02-28 14:57:03 51°15.779 2°55.675 231.3 0.1 127.2 12
2002-02-28 14:58:03 51°15.779 2°55.675 234.2 0.1 309.1 12
2002-02-28 14:59:02 51°15.779 2°55.675 237.7   220.3 11.9
2002-02-28 15:00:02 51°15.78 2°55.674 234.8   92.1 11.9
2002-02-28 15:01:03 51°15.778 2°55.676 232 0.1 192.2 11.9
2002-02-28 15:02:03 51°15.778 2°55.676 237.5 0.1 335.3 11.8
2002-02-28 15:03:03 51°15.779 2°55.675 236.2 0.1 272.3 11.9
2002-02-28 15:04:03 51°15.78 2°55.676 234.5   287.3 11.9
2002-02-28 15:05:03 51°15.779 2°55.675 235.5 0.1 48.2 11.8
2002-02-28 15:06:03 51°15.781 2°55.674 234.7 0.1 251.8 11.8
2002-02-28 15:07:03 51°15.781 2°55.674 238.3 0.2 353.6 11.8
2002-02-28 15:08:03 51°15.781 2°55.672 237.5 0.1 345.3 11.8
2002-02-28 15:09:02 51°15.781 2°55.672 231.7 0.1 178.1 11.7
2002-02-28 15:10:03 51°15.779 2°55.676 229 0.2 193.6 11.8
2002-02-28 15:11:03 51°15.777 2°55.679 230.8 0.1 141.1 11.6
2002-02-28 15:12:03 51°15.776 2°55.68 231.5 0.2 53.7 11.7
2002-02-28 15:13:03 51°15.775 2°55.679 233.7 0.1 129.4 11.7
2002-02-28 15:14:03 51°15.776 2°55.678 237 0.2 276.5 11.7
2002-02-28 15:15:03 51°15.779 2°55.676 240.5 0.1 317.5 11.6
2002-02-28 15:16:02 51°15.78 2°55.674 231.5 0.1 70.4 11.6
2002-02-28 15:17:02 51°15.777 2°55.677 224.8 0.2 160 11.6
2002-02-28 15:18:02 51°15.775 2°55.68 227.7 0.1 175.1 11.6
2002-02-28 15:19:03 51°15.775 2°55.68 237 0.1 6.7 11.6
2002-02-28 15:20:02 51°15.776 2°55.678 240.5 0.1 267.5 11.5
2002-02-28 15:21:03 51°15.778 2°55.676 239.5 0.2 327.4 11.6
2002-02-28 15:22:03 51°15.779 2°55.675 233.3 0.1 54.8 11.5
2002-02-28 15:23:03 51°15.777 2°55.677 228.5 0.2 149.8 11.5
2002-02-28 15:24:02 51°15.777 2°55.678 229.2 0.1 130.7 11.6
2002-02-28 15:25:03 51°15.777 2°55.678 237.3 0.1 102.9 11.5
2002-02-28 15:26:03 51°15.776 2°55.679 234.8   275.6 11.5
2002-02-28 15:27:03 51°15.776 2°55.679 238.2   308.2 11.5
2002-02-28 15:28:03 51°15.776 2°55.679 237.5 0.1 244.9 11.4
2002-02-28 15:29:03 51°15.777 2°55.679 239.5 0.1 47.4 11.4
2002-02-28 15:30:02 51°15.776 2°55.678 233.7 0.1 61.4 11.4
2002-02-28 15:31:03 51°15.776 2°55.679 231.5 0.1 170.4 11.4
2002-02-28 15:32:03 51°15.774 2°55.68 230.8 0.2 179.3 11.4
2002-02-28 15:33:02 51°15.774 2°55.682 236.7 0.1 41 11.4
2002-02-28 15:34:03 51°15.776 2°55.679 242.5 0.2 0.3 11.3
2002-02-28 15:35:02 51°15.777 2°55.677 237.8 0.1 323.4 11.3
2002-02-28 15:36:02 51°15.778 2°55.676 236.3 0.1 305.3 11.3
2002-02-28 15:37:02 51°15.779 2°55.676 234.5   78.6 11.2
2002-02-28 15:38:03 51°15.779 2°55.676 234 0.1 66.2 11.1
2002-02-28 15:39:02 51°15.778 2°55.676 233.7   6.4 11.2
2002-02-28 15:40:03 51°15.778 2°55.676 231.3 0.1 195.1 11.2
2002-02-28 15:41:03 51°15.777 2°55.676 231.5 0.1 226 11.3
2002-02-28 15:42:02 51°15.779 2°55.675 235.7 0.1 329.9 11.2
2002-02-28 15:43:03 51°15.781 2°55.671 237.7 0.3 317.3 11.2
2002-02-28 15:44:03 51°15.782 2°55.671 227.3 0.1 7.2 11.1
2002-02-28 15:45:02 51°15.78 2°55.672 224.7 0.1 131.3 11.1
2002-02-28 15:46:03 51°15.778 2°55.676 223.7 0.2 174.2 11.1
2002-02-28 15:47:03 51°15.777 2°55.678 228 0.1 90.2 11
2002-02-28 15:48:03 51°15.778 2°55.675 238 0.1 339.5 11.1
2002-02-28 15:49:03 51°15.78 2°55.671 240.5 0.2 292.8 11
2002-02-28 15:50:02 51°15.782 2°55.668 234.7   282 11
2002-02-28 15:51:03 51°15.783 2°55.667 230.8 0.2 316.1 11.1
2002-02-28 15:52:03 51°15.783 2°55.669 220.8 0.2 119.3 11.1
2002-02-28 15:53:03 51°15.78 2°55.671 214.3 0.2 154 11
2002-02-28 15:54:03 51°15.78 2°55.673 225.8 0.1 233.2 11
2002-02-28 15:55:03 51°15.781 2°55.67 236.5 0.1 308.5 10.9
2002-02-28 15:56:02 51°15.783 2°55.664 235.7 0.2 297.4 11
2002-02-28 15:57:03 51°15.785 2°55.661 225.7 0.1 338.7 10.9
2002-02-28 15:58:03 51°15.784 2°55.666 211 0.3 105.9 10.9
2002-02-28 15:59:03 51°15.781 2°55.669 210.3 0.1 148.6 11
2002-02-28 16:00:02 51°15.781 2°55.673 221.8 0.1 190.1 10.8
2002-02-28 16:01:03 51°15.781 2°55.671 229.3 0.1 356 10.9
2002-02-28 16:02:03 51°15.782 2°55.666 234.5 0.2 269.4 10.9
2002-02-28 16:03:02 51°15.784 2°55.664 232.5 0.1 313.1 10.8
2002-02-28 16:04:03 51°15.785 2°55.662 228 0.1 340.9 10.8
2002-02-28 16:05:03 51°15.785 2°55.666 214.2 0.1 110 10.8
2002-02-28 16:06:03 51°15.782 2°55.67 215.3 0.2 134.9 10.6
2002-02-28 16:07:03 51°15.782 2°55.672 223 0.2 78.4 10.7
2002-02-28 16:08:03 51°15.78 2°55.673 227.5   348.8 10.7
2002-02-28 16:09:03 51°15.78 2°55.673 231.7 0.1 222.9 10.8
2002-02-28 16:10:03 51°15.781 2°55.673 231.2 0.2 340.1 10.7
2002-02-28 16:11:03 51°15.782 2°55.67 231.2   15.7 10.6
2002-02-28 16:12:02 51°15.782 2°55.669 225.8 0.1 246.1 10.7
2002-02-28 16:13:03 51°15.783 2°55.668 224 0.2 356.6 10.7
2002-02-28 16:14:03 51°15.783 2°55.668 225.8 0.1 227.2 10.6
2002-02-28 16:15:03 51°15.784 2°55.667 228.5 0.1 297.7 10.6
2002-02-28 16:16:03 51°15.783 2°55.668 222.8 0.1 62.8 10.6
2002-02-28 16:17:03 51°15.781 2°55.671 219.2 0.1 124.5 10.5
2002-02-28 16:18:03 51°15.781 2°55.672 227 0.1 245 10.6
2002-02-28 16:19:03 51°15.782 2°55.669 236.5 0.2 309.8 10.6
2002-02-28 16:20:03 51°15.784 2°55.664 237.7 0.2 303.3 10.6
2002-02-28 16:21:03 51°15.785 2°55.662 228.3 0.2 64.6 10.4
2002-02-28 16:22:03 51°15.784 2°55.665 215.3 0.2 137.8 10.6
2002-02-28 16:23:03 51°15.784 2°55.669 214.7 0.2 98.8 10.4
2002-02-28 16:24:03 51°15.782 2°55.67 221.5   106.6 10.4
2002-02-28 16:25:03 51°15.783 2°55.67 226.5 0.2 196 10.5
2002-02-28 16:26:03 51°15.783 2°55.667 231.7 0.2 352.8 10.4
2002-02-28 16:27:03 51°15.784 2°55.665 233.7 0.2 262.8 10.5
2002-02-28 16:28:03 51°15.785 2°55.663 230 0.1 242.5 10.4
2002-02-28 16:29:03 51°15.785 2°55.666 220.3 0.2 87.4 10.3
2002-02-28 16:30:02 51°15.785 2°55.665 219.3   236.1 10.4
2002-02-28 16:31:03 51°15.785 2°55.665 220.5   74.9 10.4
2002-02-28 16:32:03 51°15.785 2°55.665 223.2   301.8 10.3
2002-02-28 16:33:03 51°15.784 2°55.665 226   78.2 10.4
2002-02-28 16:34:03 51°15.785 2°55.665 227.2   274.5 10.3
2002-02-28 16:35:03 51°15.784 2°55.666 226.3 0.1 52.4 10.2
2002-02-28 16:36:03 51°15.785 2°55.667 223 0.1 134.1 10.2
2002-02-28 16:37:03 51°15.784 2°55.667 221.8 0.1 116.9 10.2
2002-02-28 16:38:03 51°15.783 2°55.668 219.3   122.8 10.2
2002-02-28 16:39:03 51°15.778 2°55.667 216.2 0.8 211.8 10.1
2002-02-28 16:40:03 51°15.764 2°55.658 214.5 0.7 194.8 10.1
2002-02-28 16:41:03 51°15.756 2°55.653 214 0.4 202.7 10.1
2002-02-28 16:42:03 51°15.751 2°55.649 223.3 0.3 237.9 10
2002-02-28 16:43:03 51°15.755 2°55.642 251.3 0.5 324 10.1
2002-02-28 16:44:03 51°15.765 2°55.64 279.5 0.8 7.8 10.1
2002-02-28 16:45:03 51°15.779 2°55.634 288.8 1.9 303.7 10
2002-02-28 16:46:03 51°15.719 2°55.527 212.2 8.7 210.5 9.9
2002-02-28 16:47:03 51°15.554 2°55.398 206.2 12.5 203.5 9.3
2002-02-28 16:48:03 51°15.357 2°55.267 202.3 12.9 199.8 8.6
2002-02-28 16:49:03 51°15.152 2°55.158 197.3 13.1 194.8 9.1
2002-02-28 16:50:03 51°14.943 2°55.059 197.5 13.2 195.7 9.6
2002-02-28 16:51:03 51°14.732 2°54.973 193.5 13 189.7 9.8
2002-02-28 16:52:02 51°14.519 2°54.95 171.8 13.3 171.7 10.3
2002-02-28 16:53:03 51°14.342 2°55.112 134 11.4 131.2 10.7
2002-02-28 16:54:03 51°14.221 2°55.32 140.5 10.4 136.3 11.1
2002-02-28 16:55:03 51°14.093 2°55.447 164.8 6.8 159.8 10.9
2002-02-28 16:56:07 51°14.011 2°55.495 160.8 4.4 157.1 -999
2002-02-28 16:57:08 51°13.93 2°55.56 158.8 6 154.1 -999
2002-02-28 16:58:08 51°13.824 2°55.646 157.2 7.3 152 -999
2002-02-28 16:59:07 51°13.757 2°55.717 141.2 3.9 138.2 -999
2002-02-28 17:00:08 51°13.722 2°55.785 128.8 3 123 -999
2002-02-28 17:01:08 51°13.701 2°55.848 115.7 2.5 110.8 -999
2002-02-28 17:02:07 51°13.689 2°55.902 126.2 1.3 116.6 -999
2002-02-28 17:03:07 51°13.687 2°55.904 129.3 0.2 71.4 -999